sensor_id;sensor_type;location;lat;lon;timestamp;temperature;humidity
43920;DHT22;29578;51.946;5.874;2023-03-23T00:01:46;11.70;89.80
43920;DHT22;29578;51.946;5.874;2023-03-23T00:04:11;11.80;89.80
43920;DHT22;29578;51.946;5.874;2023-03-23T00:06:38;11.80;89.80
43920;DHT22;29578;51.946;5.874;2023-03-23T00:09:04;11.90;89.80
43920;DHT22;29578;51.946;5.874;2023-03-23T00:11:31;11.70;89.70
43920;DHT22;29578;51.946;5.874;2023-03-23T00:13:57;11.80;89.80
43920;DHT22;29578;51.946;5.874;2023-03-23T00:16:26;11.80;89.70
43920;DHT22;29578;51.946;5.874;2023-03-23T00:18:58;11.90;89.80
43920;DHT22;29578;51.946;5.874;2023-03-23T00:21:25;11.80;89.70
43920;DHT22;29578;51.946;5.874;2023-03-23T00:23:59;11.70;89.70
43920;DHT22;29578;51.946;5.874;2023-03-23T00:26:25;11.80;89.80
43920;DHT22;29578;51.946;5.874;2023-03-23T00:28:54;11.80;89.80
43920;DHT22;29578;51.946;5.874;2023-03-23T00:31:19;11.80;89.70
43920;DHT22;29578;51.946;5.874;2023-03-23T00:33:45;11.90;89.80
43920;DHT22;29578;51.946;5.874;2023-03-23T00:36:11;11.80;89.60
43920;DHT22;29578;51.946;5.874;2023-03-23T00:38:37;11.80;89.60
43920;DHT22;29578;51.946;5.874;2023-03-23T00:41:03;11.80;89.60
43920;DHT22;29578;51.946;5.874;2023-03-23T00:43:29;11.80;89.60
43920;DHT22;29578;51.946;5.874;2023-03-23T00:45:56;11.80;89.60
43920;DHT22;29578;51.946;5.874;2023-03-23T00:48:23;11.90;89.50
43920;DHT22;29578;51.946;5.874;2023-03-23T00:50:49;11.90;89.40
43920;DHT22;29578;51.946;5.874;2023-03-23T00:53:14;11.80;89.40
43920;DHT22;29578;51.946;5.874;2023-03-23T00:55:41;11.80;89.40
43920;DHT22;29578;51.946;5.874;2023-03-23T00:58:07;11.80;89.40
43920;DHT22;29578;51.946;5.874;2023-03-23T01:00:33;11.90;89.40
43920;DHT22;29578;51.946;5.874;2023-03-23T01:02:59;11.90;89.30
43920;DHT22;29578;51.946;5.874;2023-03-23T01:05:24;11.90;89.30
43920;DHT22;29578;51.946;5.874;2023-03-23T01:07:58;11.90;89.30
43920;DHT22;29578;51.946;5.874;2023-03-23T01:10:24;11.90;89.30
43920;DHT22;29578;51.946;5.874;2023-03-23T01:12:51;11.80;89.30
43920;DHT22;29578;51.946;5.874;2023-03-23T01:15:17;11.90;89.40
43920;DHT22;29578;51.946;5.874;2023-03-23T01:17:43;11.80;89.30
43920;DHT22;29578;51.946;5.874;2023-03-23T01:20:10;11.80;89.30
43920;DHT22;29578;51.946;5.874;2023-03-23T01:22:36;11.80;89.40
43920;DHT22;29578;51.946;5.874;2023-03-23T01:25:02;11.80;89.40
43920;DHT22;29578;51.946;5.874;2023-03-23T01:27:27;11.80;89.40
43920;DHT22;29578;51.946;5.874;2023-03-23T01:29:53;12.00;89.50
43920;DHT22;29578;51.946;5.874;2023-03-23T01:32:18;11.90;89.40
43920;DHT22;29578;51.946;5.874;2023-03-23T01:34:44;11.90;89.30
43920;DHT22;29578;51.946;5.874;2023-03-23T01:37:09;11.80;89.20
43920;DHT22;29578;51.946;5.874;2023-03-23T01:39:35;11.80;89.30
43920;DHT22;29578;51.946;5.874;2023-03-23T01:42:02;11.90;89.30
43920;DHT22;29578;51.946;5.874;2023-03-23T01:47:13;11.90;89.20
43920;DHT22;29578;51.946;5.874;2023-03-23T01:49:40;11.90;89.10
43920;DHT22;29578;51.946;5.874;2023-03-23T01:52:11;11.90;89.00
43920;DHT22;29578;51.946;5.874;2023-03-23T01:54:42;12.00;89.00
43920;DHT22;29578;51.946;5.874;2023-03-23T01:57:13;12.00;89.00
43920;DHT22;29578;51.946;5.874;2023-03-23T01:59:39;12.00;89.00
43920;DHT22;29578;51.946;5.874;2023-03-23T02:02:07;12.00;89.10
43920;DHT22;29578;51.946;5.874;2023-03-23T02:04:36;11.90;89.00
43920;DHT22;29578;51.946;5.874;2023-03-23T02:07:01;11.90;89.00
43920;DHT22;29578;51.946;5.874;2023-03-23T02:09:28;11.90;89.70
43920;DHT22;29578;51.946;5.874;2023-03-23T02:11:54;11.90;89.10
43920;DHT22;29578;51.946;5.874;2023-03-23T02:14:20;11.90;89.00
43920;DHT22;29578;51.946;5.874;2023-03-23T02:22:13;12.00;89.10
43920;DHT22;29578;51.946;5.874;2023-03-23T02:24:48;12.00;89.00
43920;DHT22;29578;51.946;5.874;2023-03-23T02:30:07;12.00;88.90
43920;DHT22;29578;51.946;5.874;2023-03-23T02:35:18;12.00;88.80
43920;DHT22;29578;51.946;5.874;2023-03-23T02:37:46;12.00;88.70
43920;DHT22;29578;51.946;5.874;2023-03-23T02:40:14;12.10;88.80
43920;DHT22;29578;51.946;5.874;2023-03-23T02:42:43;12.00;88.70
43920;DHT22;29578;51.946;5.874;2023-03-23T02:45:10;12.10;88.80
43920;DHT22;29578;51.946;5.874;2023-03-23T02:47:37;12.10;88.90
43920;DHT22;29578;51.946;5.874;2023-03-23T02:50:03;12.10;88.70
43920;DHT22;29578;51.946;5.874;2023-03-23T02:52:30;12.10;88.70
43920;DHT22;29578;51.946;5.874;2023-03-23T02:54:56;12.10;88.60
43920;DHT22;29578;51.946;5.874;2023-03-23T02:57:24;12.10;88.60
43920;DHT22;29578;51.946;5.874;2023-03-23T02:59:51;12.10;88.60
43920;DHT22;29578;51.946;5.874;2023-03-23T03:02:17;12.20;88.60
43920;DHT22;29578;51.946;5.874;2023-03-23T03:04:46;12.10;88.50
43920;DHT22;29578;51.946;5.874;2023-03-23T03:07:30;12.20;88.50
43920;DHT22;29578;51.946;5.874;2023-03-23T03:10:02;12.20;88.50
43920;DHT22;29578;51.946;5.874;2023-03-23T03:12:34;12.20;88.50
43920;DHT22;29578;51.946;5.874;2023-03-23T03:15:06;12.20;88.40
43920;DHT22;29578;51.946;5.874;2023-03-23T03:17:34;12.20;88.40
43920;DHT22;29578;51.946;5.874;2023-03-23T03:20:04;12.20;88.50
43920;DHT22;29578;51.946;5.874;2023-03-23T03:22:34;12.20;88.40
43920;DHT22;29578;51.946;5.874;2023-03-23T03:25:02;12.20;88.40
43920;DHT22;29578;51.946;5.874;2023-03-23T03:27:28;12.20;88.40
43920;DHT22;29578;51.946;5.874;2023-03-23T03:29:55;12.20;88.40
43920;DHT22;29578;51.946;5.874;2023-03-23T03:32:22;12.30;88.40
43920;DHT22;29578;51.946;5.874;2023-03-23T03:34:49;12.20;88.30
43920;DHT22;29578;51.946;5.874;2023-03-23T03:37:16;12.20;88.30
43920;DHT22;29578;51.946;5.874;2023-03-23T03:39:42;12.20;88.40
43920;DHT22;29578;51.946;5.874;2023-03-23T03:42:07;12.20;88.30
43920;DHT22;29578;51.946;5.874;2023-03-23T03:44:33;12.20;88.30
43920;DHT22;29578;51.946;5.874;2023-03-23T03:46:59;12.30;88.40
43920;DHT22;29578;51.946;5.874;2023-03-23T03:49:24;12.20;88.20
43920;DHT22;29578;51.946;5.874;2023-03-23T03:51:51;12.30;88.30
43920;DHT22;29578;51.946;5.874;2023-03-23T03:54:16;12.20;88.20
43920;DHT22;29578;51.946;5.874;2023-03-23T03:56:42;12.30;88.30
43920;DHT22;29578;51.946;5.874;2023-03-23T03:59:08;12.20;88.30
43920;DHT22;29578;51.946;5.874;2023-03-23T04:01:35;12.30;88.30
43920;DHT22;29578;51.946;5.874;2023-03-23T04:04:00;12.30;88.30
43920;DHT22;29578;51.946;5.874;2023-03-23T04:06:26;12.30;88.20
43920;DHT22;29578;51.946;5.874;2023-03-23T04:08:56;12.40;88.10
43920;DHT22;29578;51.946;5.874;2023-03-23T04:11:21;12.30;88.10
43920;DHT22;29578;51.946;5.874;2023-03-23T04:13:47;12.30;88.00
43920;DHT22;29578;51.946;5.874;2023-03-23T04:16:12;12.40;88.10
43920;DHT22;29578;51.946;5.874;2023-03-23T04:18:38;12.30;88.00
43920;DHT22;29578;51.946;5.874;2023-03-23T04:21:03;12.40;88.00
43920;DHT22;29578;51.946;5.874;2023-03-23T04:23:29;12.40;87.90
43920;DHT22;29578;51.946;5.874;2023-03-23T04:25:58;12.40;88.00
43920;DHT22;29578;51.946;5.874;2023-03-23T04:28:24;12.40;87.90
43920;DHT22;29578;51.946;5.874;2023-03-23T04:30:50;12.50;87.90
43920;DHT22;29578;51.946;5.874;2023-03-23T04:33:20;12.40;87.80
43920;DHT22;29578;51.946;5.874;2023-03-23T04:35:46;12.40;87.80
43920;DHT22;29578;51.946;5.874;2023-03-23T04:38:14;12.50;87.80
43920;DHT22;29578;51.946;5.874;2023-03-23T04:40:40;12.40;87.80
43920;DHT22;29578;51.946;5.874;2023-03-23T04:43:06;12.60;87.80
43920;DHT22;29578;51.946;5.874;2023-03-23T04:45:32;12.50;87.60
43920;DHT22;29578;51.946;5.874;2023-03-23T04:47:58;12.50;87.50
43920;DHT22;29578;51.946;5.874;2023-03-23T04:50:26;12.50;87.50
43920;DHT22;29578;51.946;5.874;2023-03-23T04:52:52;12.50;87.50
43920;DHT22;29578;51.946;5.874;2023-03-23T04:55:19;12.50;87.50
43920;DHT22;29578;51.946;5.874;2023-03-23T04:57:46;12.50;87.50
43920;DHT22;29578;51.946;5.874;2023-03-23T05:00:12;12.50;87.40
43920;DHT22;29578;51.946;5.874;2023-03-23T05:02:39;12.50;87.30
43920;DHT22;29578;51.946;5.874;2023-03-23T05:05:07;12.50;87.90
43920;DHT22;29578;51.946;5.874;2023-03-23T05:07:32;12.50;87.30
43920;DHT22;29578;51.946;5.874;2023-03-23T05:09:58;12.50;87.30
43920;DHT22;29578;51.946;5.874;2023-03-23T05:12:23;12.60;87.30
43920;DHT22;29578;51.946;5.874;2023-03-23T05:14:49;12.60;87.20
43920;DHT22;29578;51.946;5.874;2023-03-23T05:17:15;12.50;87.10
43920;DHT22;29578;51.946;5.874;2023-03-23T05:19:43;12.50;87.20
43920;DHT22;29578;51.946;5.874;2023-03-23T05:22:13;12.50;87.10
43920;DHT22;29578;51.946;5.874;2023-03-23T05:24:40;12.50;87.10
43920;DHT22;29578;51.946;5.874;2023-03-23T05:27:05;12.50;87.10
43920;DHT22;29578;51.946;5.874;2023-03-23T05:29:33;12.50;87.10
43920;DHT22;29578;51.946;5.874;2023-03-23T05:32:01;12.50;87.10
43920;DHT22;29578;51.946;5.874;2023-03-23T05:34:27;12.50;87.10
43920;DHT22;29578;51.946;5.874;2023-03-23T05:36:54;12.50;87.10
43920;DHT22;29578;51.946;5.874;2023-03-23T05:39:22;12.50;87.10
43920;DHT22;29578;51.946;5.874;2023-03-23T05:41:48;12.50;87.10
43920;DHT22;29578;51.946;5.874;2023-03-23T05:44:13;12.40;87.00
43920;DHT22;29578;51.946;5.874;2023-03-23T05:46:40;12.50;87.00
43920;DHT22;29578;51.946;5.874;2023-03-23T05:49:05;12.40;87.00
43920;DHT22;29578;51.946;5.874;2023-03-23T05:51:31;12.40;86.90
43920;DHT22;29578;51.946;5.874;2023-03-23T05:53:56;12.40;87.00
43920;DHT22;29578;51.946;5.874;2023-03-23T05:56:22;12.50;86.90
43920;DHT22;29578;51.946;5.874;2023-03-23T05:58:47;12.50;86.80
43920;DHT22;29578;51.946;5.874;2023-03-23T06:01:13;12.50;86.80
43920;DHT22;29578;51.946;5.874;2023-03-23T06:03:39;12.50;86.80
43920;DHT22;29578;51.946;5.874;2023-03-23T06:06:05;12.40;86.70
43920;DHT22;29578;51.946;5.874;2023-03-23T06:08:30;12.40;86.70
43920;DHT22;29578;51.946;5.874;2023-03-23T06:10:56;12.50;86.80
43920;DHT22;29578;51.946;5.874;2023-03-23T06:13:22;12.50;86.80
43920;DHT22;29578;51.946;5.874;2023-03-23T06:15:48;12.40;86.70
43920;DHT22;29578;51.946;5.874;2023-03-23T06:18:14;12.60;86.80
43920;DHT22;29578;51.946;5.874;2023-03-23T06:20:39;12.50;86.80
43920;DHT22;29578;51.946;5.874;2023-03-23T06:23:06;12.50;86.80
43920;DHT22;29578;51.946;5.874;2023-03-23T06:25:31;12.50;86.70
43920;DHT22;29578;51.946;5.874;2023-03-23T06:27:57;12.50;86.60
43920;DHT22;29578;51.946;5.874;2023-03-23T06:30:23;12.50;86.50
43920;DHT22;29578;51.946;5.874;2023-03-23T06:32:49;12.60;86.50
43920;DHT22;29578;51.946;5.874;2023-03-23T06:35:15;12.60;86.40
43920;DHT22;29578;51.946;5.874;2023-03-23T06:37:41;12.60;86.30
43920;DHT22;29578;51.946;5.874;2023-03-23T06:40:07;12.60;86.30
43920;DHT22;29578;51.946;5.874;2023-03-23T06:42:35;12.60;86.30
43920;DHT22;29578;51.946;5.874;2023-03-23T06:45:01;12.50;86.30
43920;DHT22;29578;51.946;5.874;2023-03-23T06:47:27;12.50;86.30
43920;DHT22;29578;51.946;5.874;2023-03-23T06:49:56;12.60;86.30
43920;DHT22;29578;51.946;5.874;2023-03-23T06:52:22;12.50;86.40
43920;DHT22;29578;51.946;5.874;2023-03-23T06:54:48;12.50;86.40
43920;DHT22;29578;51.946;5.874;2023-03-23T06:57:14;12.60;86.40
43920;DHT22;29578;51.946;5.874;2023-03-23T06:59:40;12.50;86.30
43920;DHT22;29578;51.946;5.874;2023-03-23T07:02:08;12.60;86.30
43920;DHT22;29578;51.946;5.874;2023-03-23T07:04:34;12.60;86.20
43920;DHT22;29578;51.946;5.874;2023-03-23T07:07:00;12.60;86.20
43920;DHT22;29578;51.946;5.874;2023-03-23T07:09:26;12.60;86.10
43920;DHT22;29578;51.946;5.874;2023-03-23T07:11:52;12.60;86.00
43920;DHT22;29578;51.946;5.874;2023-03-23T07:14:18;12.60;86.00
43920;DHT22;29578;51.946;5.874;2023-03-23T07:16:43;12.60;86.00
43920;DHT22;29578;51.946;5.874;2023-03-23T07:19:09;12.60;86.00
43920;DHT22;29578;51.946;5.874;2023-03-23T07:21:34;12.70;86.00
43920;DHT22;29578;51.946;5.874;2023-03-23T07:24:00;12.60;86.00
43920;DHT22;29578;51.946;5.874;2023-03-23T07:26:26;12.60;86.00
43920;DHT22;29578;51.946;5.874;2023-03-23T07:28:51;12.60;86.00
43920;DHT22;29578;51.946;5.874;2023-03-23T07:31:17;12.70;86.10
43920;DHT22;29578;51.946;5.874;2023-03-23T07:33:42;12.60;86.00
43920;DHT22;29578;51.946;5.874;2023-03-23T07:36:09;12.60;86.00
43920;DHT22;29578;51.946;5.874;2023-03-23T07:38:34;12.60;85.90
43920;DHT22;29578;51.946;5.874;2023-03-23T07:41:01;12.60;86.00
43920;DHT22;29578;51.946;5.874;2023-03-23T07:43:27;12.60;85.90
43920;DHT22;29578;51.946;5.874;2023-03-23T07:45:52;12.50;85.90
43920;DHT22;29578;51.946;5.874;2023-03-23T07:48:18;12.40;85.90
43920;DHT22;29578;51.946;5.874;2023-03-23T07:50:43;12.40;86.10
43920;DHT22;29578;51.946;5.874;2023-03-23T07:53:09;12.60;86.20
43920;DHT22;29578;51.946;5.874;2023-03-23T07:55:35;12.40;86.20
43920;DHT22;29578;51.946;5.874;2023-03-23T07:58:00;12.40;86.30
43920;DHT22;29578;51.946;5.874;2023-03-23T08:00:25;12.30;86.40
43920;DHT22;29578;51.946;5.874;2023-03-23T08:02:53;12.20;86.50
43920;DHT22;29578;51.946;5.874;2023-03-23T08:05:21;12.20;86.50
43920;DHT22;29578;51.946;5.874;2023-03-23T08:07:47;12.10;86.70
43920;DHT22;29578;51.946;5.874;2023-03-23T08:10:13;12.10;86.80
43920;DHT22;29578;51.946;5.874;2023-03-23T08:12:40;12.10;87.00
43920;DHT22;29578;51.946;5.874;2023-03-23T08:15:07;12.00;87.10
43920;DHT22;29578;51.946;5.874;2023-03-23T08:17:33;12.00;87.20
43920;DHT22;29578;51.946;5.874;2023-03-23T08:19:59;12.00;87.20
43920;DHT22;29578;51.946;5.874;2023-03-23T08:22:25;12.10;87.40
43920;DHT22;29578;51.946;5.874;2023-03-23T08:24:51;12.00;87.40
43920;DHT22;29578;51.946;5.874;2023-03-23T08:27:16;12.10;87.40
43920;DHT22;29578;51.946;5.874;2023-03-23T08:29:45;12.10;87.30
43920;DHT22;29578;51.946;5.874;2023-03-23T08:32:11;12.10;87.30
43920;DHT22;29578;51.946;5.874;2023-03-23T08:34:37;12.00;87.20
43920;DHT22;29578;51.946;5.874;2023-03-23T08:37:02;12.10;87.30
43920;DHT22;29578;51.946;5.874;2023-03-23T08:39:28;12.20;87.30
43920;DHT22;29578;51.946;5.874;2023-03-23T08:41:55;12.10;87.30
43920;DHT22;29578;51.946;5.874;2023-03-23T08:44:21;12.20;87.30
43920;DHT22;29578;51.946;5.874;2023-03-23T08:46:46;12.20;87.30
43920;DHT22;29578;51.946;5.874;2023-03-23T08:49:11;12.20;87.20
43920;DHT22;29578;51.946;5.874;2023-03-23T08:51:37;12.30;87.00
43920;DHT22;29578;51.946;5.874;2023-03-23T08:54:03;12.30;87.00
43920;DHT22;29578;51.946;5.874;2023-03-23T08:56:28;12.30;87.00
43920;DHT22;29578;51.946;5.874;2023-03-23T08:58:54;12.40;87.00
43920;DHT22;29578;51.946;5.874;2023-03-23T09:01:19;12.40;86.80
43920;DHT22;29578;51.946;5.874;2023-03-23T09:03:45;12.30;86.70
43920;DHT22;29578;51.946;5.874;2023-03-23T09:06:11;12.40;86.80
43920;DHT22;29578;51.946;5.874;2023-03-23T09:08:38;12.30;86.80
43920;DHT22;29578;51.946;5.874;2023-03-23T09:11:05;12.40;86.90
43920;DHT22;29578;51.946;5.874;2023-03-23T09:13:32;12.30;86.80
43920;DHT22;29578;51.946;5.874;2023-03-23T09:15:58;12.40;86.90
43920;DHT22;29578;51.946;5.874;2023-03-23T09:18:23;12.40;86.90
43920;DHT22;29578;51.946;5.874;2023-03-23T09:20:50;12.40;86.90
43920;DHT22;29578;51.946;5.874;2023-03-23T09:23:16;12.40;86.80
43920;DHT22;29578;51.946;5.874;2023-03-23T09:25:42;12.50;86.70
43920;DHT22;29578;51.946;5.874;2023-03-23T09:28:08;12.50;86.40
43920;DHT22;29578;51.946;5.874;2023-03-23T09:30:34;12.50;86.20
43920;DHT22;29578;51.946;5.874;2023-03-23T09:33:01;12.50;86.20
43920;DHT22;29578;51.946;5.874;2023-03-23T09:35:27;12.60;86.30
43920;DHT22;29578;51.946;5.874;2023-03-23T09:37:53;12.60;86.20
43920;DHT22;29578;51.946;5.874;2023-03-23T09:40:20;12.70;86.10
43920;DHT22;29578;51.946;5.874;2023-03-23T09:42:49;12.70;85.80
43920;DHT22;29578;51.946;5.874;2023-03-23T09:50:39;12.80;85.70
43920;DHT22;29578;51.946;5.874;2023-03-23T09:53:15;12.90;85.70
43920;DHT22;29578;51.946;5.874;2023-03-23T09:55:42;13.00;85.50
43920;DHT22;29578;51.946;5.874;2023-03-23T10:01:00;13.10;85.30
43920;DHT22;29578;51.946;5.874;2023-03-23T10:03:30;13.20;85.00
43920;DHT22;29578;51.946;5.874;2023-03-23T10:05:57;13.30;84.80
43920;DHT22;29578;51.946;5.874;2023-03-23T10:08:24;13.40;84.50
43920;DHT22;29578;51.946;5.874;2023-03-23T10:10:54;13.50;84.40
43920;DHT22;29578;51.946;5.874;2023-03-23T10:13:30;13.50;84.30
43920;DHT22;29578;51.946;5.874;2023-03-23T10:15:57;13.50;84.00
43920;DHT22;29578;51.946;5.874;2023-03-23T10:18:26;13.60;83.90
43920;DHT22;29578;51.946;5.874;2023-03-23T10:20:55;13.60;83.70
43920;DHT22;29578;51.946;5.874;2023-03-23T10:26:10;13.80;83.40
43920;DHT22;29578;51.946;5.874;2023-03-23T10:28:39;13.90;83.40
43920;DHT22;29578;51.946;5.874;2023-03-23T10:31:08;14.00;83.10
43920;DHT22;29578;51.946;5.874;2023-03-23T10:33:40;14.20;82.90
43920;DHT22;29578;51.946;5.874;2023-03-23T10:36:17;14.20;82.50
43920;DHT22;29578;51.946;5.874;2023-03-23T10:38:47;14.20;82.30
43920;DHT22;29578;51.946;5.874;2023-03-23T10:41:15;14.30;81.80
43920;DHT22;29578;51.946;5.874;2023-03-23T10:43:42;14.20;81.90
43920;DHT22;29578;51.946;5.874;2023-03-23T10:46:17;14.30;82.40
43920;DHT22;29578;51.946;5.874;2023-03-23T10:48:47;14.30;81.90
43920;DHT22;29578;51.946;5.874;2023-03-23T10:51:16;14.50;81.90
43920;DHT22;29578;51.946;5.874;2023-03-23T10:53:45;14.40;81.30
43920;DHT22;29578;51.946;5.874;2023-03-23T10:56:24;14.50;81.40
43920;DHT22;29578;51.946;5.874;2023-03-23T10:58:50;14.50;81.20
43920;DHT22;29578;51.946;5.874;2023-03-23T11:01:18;14.50;80.90
43920;DHT22;29578;51.946;5.874;2023-03-23T11:03:45;14.50;81.10
43920;DHT22;29578;51.946;5.874;2023-03-23T11:06:22;14.50;81.30
43920;DHT22;29578;51.946;5.874;2023-03-23T11:08:51;14.60;81.50
43920;DHT22;29578;51.946;5.874;2023-03-23T11:11:18;14.70;81.20
43920;DHT22;29578;51.946;5.874;2023-03-23T11:13:46;14.70;81.00
43920;DHT22;29578;51.946;5.874;2023-03-23T11:18:48;15.00;79.80
43920;DHT22;29578;51.946;5.874;2023-03-23T11:21:14;15.00;79.80
43920;DHT22;29578;51.946;5.874;2023-03-23T11:23:41;15.10;80.10
43920;DHT22;29578;51.946;5.874;2023-03-23T11:31:31;15.30;79.20
43920;DHT22;29578;51.946;5.874;2023-03-23T11:34:00;15.40;79.10
43920;DHT22;29578;51.946;5.874;2023-03-23T11:36:29;15.50;78.70
43920;DHT22;29578;51.946;5.874;2023-03-23T11:38:55;15.40;78.40
43920;DHT22;29578;51.946;5.874;2023-03-23T11:41:23;15.30;78.50
43920;DHT22;29578;51.946;5.874;2023-03-23T11:43:50;15.10;78.70
43920;DHT22;29578;51.946;5.874;2023-03-23T11:49:03;15.00;79.60
43920;DHT22;29578;51.946;5.874;2023-03-23T11:51:36;14.90;79.80
43920;DHT22;29578;51.946;5.874;2023-03-23T11:54:07;14.90;80.00
43920;DHT22;29578;51.946;5.874;2023-03-23T11:56:35;14.80;80.20
43920;DHT22;29578;51.946;5.874;2023-03-23T11:59:01;14.80;80.40
43920;DHT22;29578;51.946;5.874;2023-03-23T12:01:32;14.70;80.50
43920;DHT22;29578;51.946;5.874;2023-03-23T12:04:03;14.60;80.60
43920;DHT22;29578;51.946;5.874;2023-03-23T12:06:34;14.60;80.90
43920;DHT22;29578;51.946;5.874;2023-03-23T12:09:04;14.30;81.20
43920;DHT22;29578;51.946;5.874;2023-03-23T12:11:39;14.20;81.80
43920;DHT22;29578;51.946;5.874;2023-03-23T12:14:16;14.10;82.20
43920;DHT22;29578;51.946;5.874;2023-03-23T12:16:50;14.00;82.40
43920;DHT22;29578;51.946;5.874;2023-03-23T12:22:16;13.90;82.90
43920;DHT22;29578;51.946;5.874;2023-03-23T12:24:48;14.10;83.00
43920;DHT22;29578;51.946;5.874;2023-03-23T12:29:58;14.30;82.40
43920;DHT22;29578;51.946;5.874;2023-03-23T12:32:31;14.40;82.20
43920;DHT22;29578;51.946;5.874;2023-03-23T12:35:04;14.50;82.10
43920;DHT22;29578;51.946;5.874;2023-03-23T12:37:35;14.60;81.70
43920;DHT22;29578;51.946;5.874;2023-03-23T12:40:06;14.70;81.70
43920;DHT22;29578;51.946;5.874;2023-03-23T12:45:18;14.70;81.30
43920;DHT22;29578;51.946;5.874;2023-03-23T12:47:56;14.70;81.10
43920;DHT22;29578;51.946;5.874;2023-03-23T12:50:30;14.70;81.10
43920;DHT22;29578;51.946;5.874;2023-03-23T12:53:02;14.70;81.10
43920;DHT22;29578;51.946;5.874;2023-03-23T12:55:35;14.60;81.20
43920;DHT22;29578;51.946;5.874;2023-03-23T12:58:05;14.50;81.30
43920;DHT22;29578;51.946;5.874;2023-03-23T13:00:48;14.40;81.20
43920;DHT22;29578;51.946;5.874;2023-03-23T13:03:19;14.40;81.20
43920;DHT22;29578;51.946;5.874;2023-03-23T13:05:47;14.20;81.30
43920;DHT22;29578;51.946;5.874;2023-03-23T13:08:22;13.70;82.10
43920;DHT22;29578;51.946;5.874;2023-03-23T13:10:51;13.40;83.20
43920;DHT22;29578;51.946;5.874;2023-03-23T13:13:21;13.10;84.10
43920;DHT22;29578;51.946;5.874;2023-03-23T13:15:53;13.00;84.50
43920;DHT22;29578;51.946;5.874;2023-03-23T13:18:25;12.90;84.80
43920;DHT22;29578;51.946;5.874;2023-03-23T13:20:56;12.80;85.00
43920;DHT22;29578;51.946;5.874;2023-03-23T13:23:26;12.70;85.30
43920;DHT22;29578;51.946;5.874;2023-03-23T13:25:56;12.60;85.40
43920;DHT22;29578;51.946;5.874;2023-03-23T13:28:26;12.60;85.60
43920;DHT22;29578;51.946;5.874;2023-03-23T13:30:56;12.60;85.50
43920;DHT22;29578;51.946;5.874;2023-03-23T13:33:22;12.50;85.50
43920;DHT22;29578;51.946;5.874;2023-03-23T13:35:48;12.60;85.60
43920;DHT22;29578;51.946;5.874;2023-03-23T13:38:19;12.70;86.20
43920;DHT22;29578;51.946;5.874;2023-03-23T13:40:46;12.80;85.20
43920;DHT22;29578;51.946;5.874;2023-03-23T13:43:12;13.00;84.90
43920;DHT22;29578;51.946;5.874;2023-03-23T13:45:45;13.10;84.50
43920;DHT22;29578;51.946;5.874;2023-03-23T13:48:21;13.10;84.40
43920;DHT22;29578;51.946;5.874;2023-03-23T13:50:55;13.10;84.40
43920;DHT22;29578;51.946;5.874;2023-03-23T13:53:29;13.20;84.60
43920;DHT22;29578;51.946;5.874;2023-03-23T13:56:16;13.30;84.50
43920;DHT22;29578;51.946;5.874;2023-03-23T13:58:44;13.40;84.30
43920;DHT22;29578;51.946;5.874;2023-03-23T14:01:12;13.40;84.20
43920;DHT22;29578;51.946;5.874;2023-03-23T14:03:42;13.40;84.10
43920;DHT22;29578;51.946;5.874;2023-03-23T14:06:23;13.40;84.10
43920;DHT22;29578;51.946;5.874;2023-03-23T14:08:51;13.50;84.20
43920;DHT22;29578;51.946;5.874;2023-03-23T14:11:26;13.40;84.30
43920;DHT22;29578;51.946;5.874;2023-03-23T14:14:02;13.40;84.30
43920;DHT22;29578;51.946;5.874;2023-03-23T14:16:32;13.40;84.50
43920;DHT22;29578;51.946;5.874;2023-03-23T14:19:00;13.30;84.60
43920;DHT22;29578;51.946;5.874;2023-03-23T14:21:42;13.30;84.70
43920;DHT22;29578;51.946;5.874;2023-03-23T14:24:12;13.30;84.80
43920;DHT22;29578;51.946;5.874;2023-03-23T14:26:38;13.30;85.00
43920;DHT22;29578;51.946;5.874;2023-03-23T14:29:04;13.30;85.10
43920;DHT22;29578;51.946;5.874;2023-03-23T14:31:31;13.40;85.10
43920;DHT22;29578;51.946;5.874;2023-03-23T14:34:00;13.50;84.90
43920;DHT22;29578;51.946;5.874;2023-03-23T14:36:27;13.70;84.70
43920;DHT22;29578;51.946;5.874;2023-03-23T14:38:56;14.00;84.50
43920;DHT22;29578;51.946;5.874;2023-03-23T14:41:23;14.20;84.00
43920;DHT22;29578;51.946;5.874;2023-03-23T14:43:50;14.30;83.40
43920;DHT22;29578;51.946;5.874;2023-03-23T14:46:15;14.40;82.90
43920;DHT22;29578;51.946;5.874;2023-03-23T14:48:41;14.50;82.70
43920;DHT22;29578;51.946;5.874;2023-03-23T14:51:07;14.60;82.60
43920;DHT22;29578;51.946;5.874;2023-03-23T14:53:42;14.60;82.40
43920;DHT22;29578;51.946;5.874;2023-03-23T14:56:10;14.70;82.20
43920;DHT22;29578;51.946;5.874;2023-03-23T14:58:37;14.80;82.00
43920;DHT22;29578;51.946;5.874;2023-03-23T15:01:06;14.80;82.00
43920;DHT22;29578;51.946;5.874;2023-03-23T15:03:34;14.80;82.10
43920;DHT22;29578;51.946;5.874;2023-03-23T15:06:02;14.80;82.20
43920;DHT22;29578;51.946;5.874;2023-03-23T15:08:30;14.90;81.90
43920;DHT22;29578;51.946;5.874;2023-03-23T15:11:23;14.90;81.70
43920;DHT22;29578;51.946;5.874;2023-03-23T15:13:44;14.90;81.60
43920;DHT22;29578;51.946;5.874;2023-03-23T15:16:13;15.00;81.50
43920;DHT22;29578;51.946;5.874;2023-03-23T15:18:40;15.00;81.30
43920;DHT22;29578;51.946;5.874;2023-03-23T15:21:08;15.10;81.50
43920;DHT22;29578;51.946;5.874;2023-03-23T15:23:34;15.30;81.30
43920;DHT22;29578;51.946;5.874;2023-03-23T15:26:05;15.50;80.60
43920;DHT22;29578;51.946;5.874;2023-03-23T15:28:33;15.70;79.70
43920;DHT22;29578;51.946;5.874;2023-03-23T15:31:00;15.70;79.60
43920;DHT22;29578;51.946;5.874;2023-03-23T15:33:33;15.60;79.60
43920;DHT22;29578;51.946;5.874;2023-03-23T15:35:58;15.60;79.60
43920;DHT22;29578;51.946;5.874;2023-03-23T15:38:25;15.40;79.90
43920;DHT22;29578;51.946;5.874;2023-03-23T15:40:53;15.30;80.30
43920;DHT22;29578;51.946;5.874;2023-03-23T15:43:21;15.10;80.60
43920;DHT22;29578;51.946;5.874;2023-03-23T15:48:32;15.10;81.00
43920;DHT22;29578;51.946;5.874;2023-03-23T15:50:58;15.20;81.30
43920;DHT22;29578;51.946;5.874;2023-03-23T15:53:27;15.00;81.40
43920;DHT22;29578;51.946;5.874;2023-03-23T15:55:53;15.20;81.60
43920;DHT22;29578;51.946;5.874;2023-03-23T15:58:19;15.10;81.60
43920;DHT22;29578;51.946;5.874;2023-03-23T16:00:44;15.00;81.60
43920;DHT22;29578;51.946;5.874;2023-03-23T16:03:12;15.00;81.70
43920;DHT22;29578;51.946;5.874;2023-03-23T16:05:39;15.00;81.80
43920;DHT22;29578;51.946;5.874;2023-03-23T16:08:07;15.00;81.80
43920;DHT22;29578;51.946;5.874;2023-03-23T16:10:33;15.00;82.00
43920;DHT22;29578;51.946;5.874;2023-03-23T16:12:59;15.00;82.10
43920;DHT22;29578;51.946;5.874;2023-03-23T16:15:25;15.00;81.80
43920;DHT22;29578;51.946;5.874;2023-03-23T16:17:50;15.00;81.50
43920;DHT22;29578;51.946;5.874;2023-03-23T16:20:17;15.10;81.40